createdAt,value
2023-05-02T00:01:05.954Z,63.09
2023-05-02T00:03:35.216Z,62.98
2023-05-02T00:06:04.299Z,62.97
2023-05-02T00:08:33.126Z,62.85
2023-05-02T00:11:02.109Z,62.94
2023-05-02T00:13:31.020Z,62.30
2023-05-02T00:15:59.892Z,62.29
2023-05-02T00:18:28.780Z,62.08
2023-05-02T00:20:57.616Z,62.20
2023-05-02T00:23:26.403Z,61.92
2023-05-02T00:25:55.234Z,61.73
2023-05-02T00:28:24.120Z,61.33
2023-05-02T00:30:53.013Z,61.01
2023-05-02T00:33:21.894Z,60.64
2023-05-02T00:35:51.887Z,60.28
2023-05-02T00:38:21.034Z,60.70
2023-05-02T00:40:54.629Z,60.17
2023-05-02T00:43:23.483Z,59.97
2023-05-02T00:45:52.829Z,59.03
2023-05-02T00:48:22.322Z,58.66
2023-05-02T00:50:51.866Z,57.90
2023-05-02T00:53:20.964Z,57.51
2023-05-02T00:55:50.198Z,56.45
2023-05-02T00:58:21.466Z,56.78
2023-05-02T01:01:22.002Z,56.91
2023-05-02T01:04:09.667Z,56.84
2023-05-02T01:07:12.264Z,56.37
2023-05-02T01:10:22.336Z,56.06
2023-05-02T01:12:57.289Z,55.57
2023-05-02T01:15:26.976Z,55.59
2023-05-02T01:17:58.137Z,55.56
2023-05-02T01:20:30.094Z,55.33
2023-05-02T01:23:05.596Z,55.34
2023-05-02T01:25:38.492Z,53.11
2023-05-02T01:28:32.839Z,51.74
2023-05-02T01:31:04.282Z,51.70
2023-05-02T01:33:36.461Z,51.36
2023-05-02T01:36:08.152Z,51.44
2023-05-02T01:38:39.656Z,52.72
2023-05-02T01:41:09.711Z,52.48
2023-05-02T01:43:40.115Z,52.89
2023-05-02T01:46:11.170Z,53.09
2023-05-02T01:48:45.414Z,53.22
2023-05-02T01:51:19.257Z,53.39
2023-05-02T01:53:50.726Z,53.34
2023-05-02T01:56:22.137Z,53.02
2023-05-02T01:58:53.309Z,52.29
2023-05-02T02:01:28.210Z,52.36
2023-05-02T02:04:00.003Z,50.21
2023-05-02T02:06:29.310Z,49.29
2023-05-02T02:08:58.416Z,49.36
2023-05-02T02:11:36.587Z,48.59
2023-05-02T02:14:23.360Z,50.25
2023-05-02T02:17:25.101Z,47.19
2023-05-02T02:19:56.930Z,46.31
2023-05-02T02:22:28.399Z,47.66
2023-05-02T02:24:58.339Z,48.87
2023-05-02T02:27:27.291Z,49.48
2023-05-02T02:29:56.464Z,49.39
2023-05-02T02:32:25.412Z,49.54
2023-05-02T02:34:55.875Z,50.49
2023-05-02T02:37:34.158Z,48.13
2023-05-02T02:40:18.269Z,47.00
2023-05-02T02:43:00.411Z,44.63
2023-05-02T02:46:06.187Z,44.86
2023-05-02T02:49:00.975Z,45.45
2023-05-02T02:51:38.737Z,45.09
2023-05-02T02:54:31.851Z,45.21
2023-05-02T02:57:28.954Z,45.69
2023-05-02T03:00:15.408Z,46.90
2023-05-02T03:02:48.060Z,47.79
2023-05-02T03:05:17.873Z,44.26
2023-05-02T03:07:46.757Z,42.35
2023-05-02T03:10:15.674Z,41.15
2023-05-02T03:12:44.486Z,39.64
2023-05-02T03:15:32.102Z,41.85
2023-05-02T03:18:02.067Z,42.79
2023-05-02T03:20:30.995Z,43.99
2023-05-02T03:23:02.235Z,43.12
2023-05-02T03:25:31.167Z,42.77
2023-05-02T03:28:00.130Z,42.44
2023-05-02T03:30:29.055Z,43.61
2023-05-02T03:32:58.205Z,41.35
2023-05-02T03:35:27.490Z,39.68
2023-05-02T03:37:56.303Z,40.26
2023-05-02T03:40:25.652Z,40.59
2023-05-02T03:42:54.523Z,40.74
2023-05-02T03:45:29.632Z,40.77
2023-05-02T03:47:58.531Z,41.19
2023-05-02T03:50:27.732Z,40.58
2023-05-02T03:52:57.759Z,40.66
2023-05-02T03:55:46.542Z,38.92
2023-05-02T03:58:23.842Z,39.50
2023-05-02T04:00:56.404Z,38.17
2023-05-02T04:03:29.324Z,38.06
2023-05-02T04:06:00.327Z,39.21
2023-05-02T04:08:29.781Z,38.69
2023-05-02T04:10:59.356Z,37.49
2023-05-02T04:13:30.029Z,37.02
2023-05-02T04:16:00.146Z,35.80
2023-05-02T04:18:32.883Z,34.87
2023-05-02T04:21:04.113Z,34.15
2023-05-02T04:23:34.018Z,34.11
2023-05-02T04:26:04.252Z,34.69
2023-05-02T04:28:39.677Z,34.45
2023-05-02T04:31:10.502Z,33.50
2023-05-02T04:33:40.114Z,33.95
2023-05-02T04:36:11.514Z,33.31
2023-05-02T04:38:43.946Z,34.24
2023-05-02T04:41:13.885Z,35.33
2023-05-02T04:43:49.548Z,36.38
2023-05-02T04:46:19.322Z,34.54
2023-05-02T04:48:48.413Z,33.30
2023-05-02T04:51:17.319Z,32.90
2023-05-02T04:53:50.088Z,32.97
2023-05-02T04:56:19.191Z,32.94
2023-05-02T04:58:49.240Z,33.43
2023-05-02T05:01:20.206Z,34.32
2023-05-02T05:03:49.950Z,34.63
2023-05-02T05:06:20.203Z,34.92
2023-05-02T05:08:50.009Z,33.30
2023-05-02T05:11:18.982Z,30.96
2023-05-02T05:13:48.663Z,30.00
2023-05-02T05:16:18.189Z,29.85
2023-05-02T05:18:47.827Z,30.81
2023-05-02T05:21:17.154Z,31.63
2023-05-02T05:23:48.372Z,30.89
2023-05-02T05:26:25.742Z,30.85
2023-05-02T05:28:54.442Z,32.43
2023-05-02T05:31:25.867Z,31.55
2023-05-02T05:33:58.613Z,31.91
2023-05-02T05:36:29.420Z,32.82
2023-05-02T05:38:58.231Z,34.32
2023-05-02T05:41:27.300Z,33.89
2023-05-02T05:44:02.460Z,32.89
2023-05-02T05:46:32.419Z,32.39
2023-05-02T05:49:02.885Z,33.43
2023-05-02T05:51:32.308Z,33.98
2023-05-02T05:54:02.845Z,34.69
2023-05-02T05:56:31.877Z,35.35
2023-05-02T05:59:16.586Z,35.49
2023-05-02T06:01:46.899Z,35.41
2023-05-02T06:04:18.023Z,35.84
2023-05-02T06:06:52.003Z,35.49
2023-05-02T06:09:21.024Z,35.32
2023-05-02T06:11:49.885Z,34.57
2023-05-02T06:14:19.343Z,34.95
2023-05-02T06:16:51.129Z,34.83
2023-05-02T06:19:20.208Z,34.98
2023-05-02T06:21:48.990Z,34.87
2023-05-02T06:24:17.743Z,35.43
2023-05-02T06:26:46.938Z,35.71
2023-05-02T06:29:16.027Z,36.18
2023-05-02T06:31:44.989Z,36.90
2023-05-02T06:34:13.999Z,37.39
2023-05-02T06:36:42.849Z,37.08
2023-05-02T06:39:12.194Z,37.52
2023-05-02T06:41:41.039Z,37.55
2023-05-02T06:44:15.141Z,37.20
2023-05-02T06:46:44.523Z,37.55
2023-05-02T06:49:13.338Z,37.78
2023-05-02T06:51:42.316Z,37.79
2023-05-02T06:54:11.962Z,37.61
2023-05-02T06:56:40.654Z,37.80
2023-05-02T06:59:09.595Z,37.64
2023-05-02T07:01:39.412Z,37.51
2023-05-02T07:04:09.053Z,37.79
2023-05-02T07:06:37.993Z,38.12
2023-05-02T07:09:06.872Z,38.69
2023-05-02T07:11:35.755Z,38.29
2023-05-02T07:14:04.686Z,37.53
2023-05-02T07:16:33.963Z,36.79
2023-05-02T07:19:05.100Z,36.90
2023-05-02T07:21:34.323Z,37.88
2023-05-02T07:24:03.188Z,37.98
2023-05-02T07:26:32.098Z,38.07
2023-05-02T07:29:01.661Z,38.35
2023-05-02T07:31:30.690Z,38.17
2023-05-02T07:33:59.543Z,37.63
2023-05-02T07:36:28.716Z,37.01
2023-05-02T07:38:57.867Z,36.32
2023-05-02T07:41:26.792Z,36.64
2023-05-02T07:43:56.466Z,36.67
2023-05-02T07:46:25.912Z,36.97
2023-05-02T07:48:54.962Z,37.14
2023-05-02T07:51:23.858Z,37.66
2023-05-02T07:53:59.132Z,37.75
2023-05-02T07:56:28.887Z,37.69
2023-05-02T07:58:57.698Z,36.14
2023-05-02T08:01:27.130Z,35.79
2023-05-02T08:03:56.948Z,36.13
2023-05-02T08:06:26.013Z,36.08
2023-05-02T08:08:55.133Z,35.43
2023-05-02T08:11:25.971Z,35.63
2023-05-02T08:13:55.687Z,35.47
2023-05-02T08:16:24.524Z,35.26
2023-05-02T08:18:53.293Z,35.53
2023-05-02T08:21:22.209Z,35.49
2023-05-02T08:23:51.199Z,35.95
2023-05-02T08:26:22.408Z,36.10
2023-05-02T08:28:52.614Z,35.59
2023-05-02T08:31:22.051Z,35.94
2023-05-02T08:33:51.115Z,35.54
2023-05-02T08:36:20.474Z,36.46
2023-05-02T08:38:50.074Z,36.64
2023-05-02T08:41:19.756Z,36.45
2023-05-02T08:43:48.749Z,37.13
2023-05-02T08:46:18.597Z,38.01
2023-05-02T08:48:50.344Z,38.58
2023-05-02T08:53:55.298Z,38.07
2023-05-02T08:56:24.090Z,37.61
2023-05-02T08:58:53.148Z,37.39
2023-05-02T09:01:25.497Z,37.94
2023-05-02T09:03:56.647Z,38.02
2023-05-02T09:06:27.707Z,38.13
2023-05-02T09:09:00.036Z,38.25
2023-05-02T09:11:30.060Z,38.44
2023-05-02T09:14:04.575Z,38.51
2023-05-02T09:16:40.921Z,38.31
2023-05-02T09:19:09.782Z,38.66
2023-05-02T09:21:42.255Z,38.70
2023-05-02T09:24:21.563Z,39.72
2023-05-02T09:27:06.316Z,39.33
2023-05-02T09:29:39.401Z,39.00
2023-05-02T09:32:08.611Z,39.14
2023-05-02T09:34:39.862Z,39.01
2023-05-02T09:37:09.069Z,39.09
2023-05-02T09:39:38.083Z,38.96
2023-05-02T09:42:06.985Z,38.89
2023-05-02T09:44:39.963Z,39.04
2023-05-02T09:47:09.476Z,38.77
2023-05-02T09:49:43.420Z,38.34
2023-05-02T09:52:14.747Z,38.23
2023-05-02T09:54:44.089Z,38.23
2023-05-02T09:57:12.979Z,38.54
2023-05-02T09:59:41.884Z,38.47
2023-05-02T10:02:12.496Z,38.55
2023-05-02T10:04:43.258Z,38.95
2023-05-02T10:07:13.766Z,38.96
2023-05-02T10:09:46.169Z,38.55
2023-05-02T10:12:20.239Z,38.51
2023-05-02T10:14:53.850Z,38.44
2023-05-02T10:17:32.746Z,38.85
2023-05-02T10:20:04.500Z,39.01
2023-05-02T10:22:37.838Z,39.36
2023-05-02T10:25:07.857Z,39.56
2023-05-02T10:27:38.266Z,38.78
2023-05-02T10:30:09.344Z,39.12
2023-05-02T10:32:39.500Z,38.98
2023-05-02T10:35:09.151Z,39.15
2023-05-02T10:37:41.148Z,39.80
2023-05-02T10:40:14.274Z,39.64
2023-05-02T10:42:48.789Z,39.73
2023-05-02T10:45:36.636Z,40.27
2023-05-02T10:48:27.319Z,40.05
2023-05-02T10:50:58.479Z,40.58
2023-05-02T10:53:40.230Z,40.47
2023-05-02T10:56:22.761Z,40.32
2023-05-02T10:59:15.201Z,40.86
2023-05-02T11:01:45.217Z,40.86
2023-05-02T11:04:14.477Z,41.09
2023-05-02T11:07:01.998Z,41.20
2023-05-02T11:09:33.174Z,41.24
2023-05-02T11:12:02.880Z,41.22
2023-05-02T11:14:41.079Z,41.85
2023-05-02T11:17:10.941Z,41.65
2023-05-02T11:19:39.808Z,41.88
2023-05-02T11:22:28.801Z,41.42
2023-05-02T11:24:57.796Z,41.49
2023-05-02T11:27:30.386Z,41.78
2023-05-02T11:30:10.530Z,42.26
2023-05-02T11:32:50.172Z,42.05
2023-05-02T11:35:36.545Z,42.77
2023-05-02T11:38:12.404Z,42.47
2023-05-02T11:40:41.571Z,42.97
2023-05-02T11:43:18.945Z,42.93
2023-05-02T11:45:48.543Z,43.14
2023-05-02T11:48:19.698Z,42.55
2023-05-02T11:50:53.886Z,42.81
2023-05-02T11:53:26.318Z,43.59
2023-05-02T11:56:05.590Z,43.73
2023-05-02T11:58:38.426Z,43.82
2023-05-02T12:01:17.915Z,44.11
2023-05-02T12:03:50.013Z,44.46
2023-05-02T12:06:20.609Z,45.08
2023-05-02T12:08:49.989Z,45.30
2023-05-02T12:11:18.878Z,45.21
2023-05-02T12:13:50.653Z,45.55
2023-05-02T12:16:20.608Z,46.33
2023-05-02T12:18:50.072Z,45.71
2023-05-02T12:21:19.561Z,45.65
2023-05-02T12:23:48.891Z,46.37
2023-05-02T12:26:29.801Z,45.97
2023-05-02T12:29:03.227Z,46.20
2023-05-02T12:31:32.935Z,46.78
2023-05-02T12:34:02.064Z,46.88
2023-05-02T12:36:31.120Z,46.97
2023-05-02T12:39:00.614Z,46.95
2023-05-02T12:41:37.841Z,47.25
2023-05-02T12:44:08.373Z,46.67
2023-05-02T12:46:37.733Z,47.36
2023-05-02T12:49:12.828Z,47.14
2023-05-02T12:51:42.723Z,47.56
2023-05-02T12:54:21.877Z,47.29
2023-05-02T12:56:52.809Z,47.93
2023-05-02T12:59:33.096Z,47.82
2023-05-02T13:02:03.260Z,47.96
2023-05-02T13:04:41.504Z,48.14
2023-05-02T13:07:11.601Z,47.82
2023-05-02T13:09:40.500Z,47.83
2023-05-02T13:12:09.985Z,48.11
2023-05-02T13:14:39.719Z,48.20
2023-05-02T13:17:09.310Z,48.16
2023-05-02T13:19:40.544Z,48.16
2023-05-02T13:22:13.443Z,47.91
2023-05-02T13:24:43.134Z,48.31
2023-05-02T13:27:13.130Z,47.87
2023-05-02T13:29:42.172Z,48.49
2023-05-02T13:32:11.401Z,48.63
2023-05-02T13:34:40.337Z,48.47
2023-05-02T13:37:10.088Z,48.26
2023-05-02T13:39:39.274Z,48.63
2023-05-02T13:42:08.629Z,48.62
2023-05-02T13:44:37.697Z,48.78
2023-05-02T13:47:06.924Z,48.70
2023-05-02T13:49:35.802Z,48.58
2023-05-02T13:52:04.947Z,48.62
2023-05-02T13:54:33.917Z,48.94
2023-05-02T13:57:03.353Z,48.72
2023-05-02T13:59:32.484Z,49.02
2023-05-02T14:02:02.487Z,49.18
2023-05-02T14:04:31.729Z,48.92
2023-05-02T14:07:01.259Z,49.07
2023-05-02T14:09:30.325Z,49.06
2023-05-02T14:11:59.628Z,49.39
2023-05-02T14:14:28.564Z,49.04
2023-05-02T14:16:57.434Z,49.21
2023-05-02T14:19:26.430Z,49.44
2023-05-02T14:21:55.492Z,49.49
2023-05-02T14:24:24.556Z,49.22
2023-05-02T14:26:53.442Z,49.36
2023-05-02T14:29:22.360Z,49.28
2023-05-02T14:31:51.386Z,49.49
2023-05-02T14:34:22.602Z,50.09
2023-05-02T14:36:51.694Z,49.60
2023-05-02T14:39:21.028Z,49.71
2023-05-02T14:41:50.018Z,49.85
2023-05-02T14:44:19.584Z,49.97
2023-05-02T14:46:48.601Z,49.76
2023-05-02T14:49:17.853Z,49.66
2023-05-02T14:51:48.285Z,49.80
2023-05-02T14:54:17.561Z,50.19
2023-05-02T14:56:46.604Z,49.94
2023-05-02T14:59:15.478Z,49.80
2023-05-02T15:01:45.489Z,49.73
2023-05-02T15:04:14.761Z,49.98
2023-05-02T15:06:43.763Z,50.11
2023-05-02T15:09:16.697Z,50.61
2023-05-02T15:11:45.632Z,50.12
2023-05-02T15:14:15.060Z,50.48
2023-05-02T15:16:44.305Z,50.23
2023-05-02T15:19:13.416Z,51.16
2023-05-02T15:21:42.389Z,51.16
2023-05-02T15:24:12.104Z,51.46
2023-05-02T15:26:41.707Z,51.31
2023-05-02T15:29:11.645Z,51.70
2023-05-02T15:31:41.037Z,52.42
2023-05-02T15:34:10.535Z,52.74
2023-05-02T15:36:39.761Z,53.16
2023-05-02T15:39:09.017Z,53.89
2023-05-02T15:41:37.916Z,54.16
2023-05-02T15:44:07.185Z,54.56
2023-05-02T15:46:36.262Z,54.64
2023-05-02T15:49:05.240Z,55.26
2023-05-02T15:51:34.248Z,56.15
2023-05-02T15:54:03.753Z,56.93
2023-05-02T15:56:32.645Z,56.92
2023-05-02T15:59:01.590Z,58.10
2023-05-02T16:01:31.600Z,57.98
2023-05-02T16:04:00.826Z,58.93
2023-05-02T16:06:31.170Z,58.89
2023-05-02T16:09:01.629Z,58.89
2023-05-02T16:11:32.278Z,58.98
2023-05-02T16:14:01.529Z,59.53
2023-05-02T16:16:31.262Z,59.29
2023-05-02T16:19:00.588Z,59.98
2023-05-02T16:21:29.848Z,59.93
2023-05-02T16:23:59.037Z,60.29
2023-05-02T16:26:29.548Z,60.38
2023-05-02T16:28:59.176Z,60.19
2023-05-02T16:31:28.375Z,61.49
2023-05-02T16:33:58.762Z,61.28
2023-05-02T16:36:29.690Z,61.32
2023-05-02T16:38:58.614Z,60.98
2023-05-02T16:41:27.854Z,61.60
2023-05-02T16:43:56.847Z,61.46
2023-05-02T16:46:25.962Z,61.88
2023-05-02T16:48:55.015Z,61.60
2023-05-02T16:51:23.948Z,62.21
2023-05-02T16:53:52.998Z,62.39
2023-05-02T16:56:22.177Z,62.20
2023-05-02T16:58:51.459Z,62.98
2023-05-02T17:01:21.509Z,63.44
2023-05-02T17:03:50.743Z,62.89
2023-05-02T17:06:19.671Z,63.37
2023-05-02T17:08:48.818Z,63.36
2023-05-02T17:11:18.071Z,62.89
2023-05-02T17:13:48.482Z,62.82
2023-05-02T17:16:26.160Z,63.53
2023-05-02T17:18:55.109Z,63.64
2023-05-02T17:21:24.264Z,63.73
2023-05-02T17:23:53.171Z,63.49
2023-05-02T17:26:22.720Z,63.34
2023-05-02T17:28:54.091Z,64.20
2023-05-02T17:31:24.186Z,64.13
2023-05-02T17:33:53.254Z,64.29
2023-05-02T17:36:22.198Z,63.90
2023-05-02T17:38:51.273Z,64.13
2023-05-02T17:41:20.153Z,64.41
2023-05-02T17:43:49.500Z,64.58
2023-05-02T17:46:18.595Z,64.30
2023-05-02T17:48:47.601Z,64.72
2023-05-02T17:51:16.681Z,65.39
2023-05-02T17:53:45.675Z,65.34
2023-05-02T17:56:16.616Z,64.87
2023-05-02T17:58:45.935Z,65.02
2023-05-02T18:01:16.159Z,65.21
2023-05-02T18:03:45.944Z,65.47
2023-05-02T18:06:18.922Z,65.19
2023-05-02T18:08:47.930Z,65.98
2023-05-02T18:11:18.317Z,65.92
2023-05-02T18:13:49.124Z,65.93
2023-05-02T18:16:18.713Z,65.99
2023-05-02T18:18:47.895Z,65.97
2023-05-02T18:21:23.959Z,66.37
2023-05-02T18:23:52.895Z,66.83
2023-05-02T18:26:21.935Z,66.21
2023-05-02T18:28:53.844Z,66.64
2023-05-02T18:31:22.962Z,66.28
2023-05-02T18:33:54.409Z,66.73
2023-05-02T18:36:30.535Z,66.69
2023-05-02T18:39:00.840Z,66.48
2023-05-02T18:41:29.765Z,66.52
2023-05-02T18:44:00.546Z,66.87
2023-05-02T18:46:29.860Z,66.93
2023-05-02T18:48:58.701Z,66.27
2023-05-02T18:51:29.595Z,66.43
2023-05-02T18:53:58.840Z,66.57
2023-05-02T18:56:27.810Z,66.10
2023-05-02T18:58:57.523Z,66.33
2023-05-02T19:01:27.457Z,65.80
2023-05-02T19:03:56.839Z,66.29
2023-05-02T19:06:26.779Z,66.23
2023-05-02T19:08:55.668Z,66.36
2023-05-02T19:11:24.460Z,66.40
2023-05-02T19:13:53.324Z,66.06
2023-05-02T19:16:26.219Z,66.48
2023-05-02T19:18:56.425Z,66.28
2023-05-02T19:21:25.493Z,65.97
2023-05-02T19:23:56.833Z,66.31
2023-05-02T19:26:25.730Z,66.35
2023-05-02T19:28:54.542Z,65.89
2023-05-02T19:31:24.178Z,66.00
2023-05-02T19:33:53.497Z,66.04
2023-05-02T19:36:24.929Z,66.54
2023-05-02T19:38:55.509Z,65.74
2023-05-02T19:41:24.921Z,66.29
2023-05-02T19:43:53.938Z,65.86
2023-05-02T19:46:22.882Z,65.79
2023-05-02T19:48:51.826Z,65.57
2023-05-02T19:51:25.899Z,65.92
2023-05-02T19:53:55.363Z,65.85
2023-05-02T19:56:26.798Z,66.04
2023-05-02T19:58:59.124Z,66.41
2023-05-02T20:01:31.950Z,66.01
2023-05-02T20:04:01.175Z,66.19
2023-05-02T20:06:32.068Z,65.94
2023-05-02T20:09:01.060Z,66.38
2023-05-02T20:11:31.412Z,65.82
2023-05-02T20:14:00.455Z,66.21
2023-05-02T20:16:31.776Z,66.02
2023-05-02T20:19:00.631Z,66.18
2023-05-02T20:21:29.611Z,66.12
2023-05-02T20:23:58.444Z,65.71
2023-05-02T20:26:27.470Z,66.38
2023-05-02T20:28:59.174Z,66.17
2023-05-02T20:31:28.060Z,66.08
2023-05-02T20:33:57.078Z,66.09
2023-05-02T20:36:26.529Z,66.62
2023-05-02T20:38:55.309Z,66.57
2023-05-02T20:41:24.490Z,66.65
2023-05-02T20:43:57.671Z,67.04
2023-05-02T20:46:26.511Z,67.24
2023-05-02T20:48:55.361Z,67.05
2023-05-02T20:51:24.411Z,66.93
2023-05-02T20:53:53.209Z,66.93
2023-05-02T20:56:22.144Z,66.78
2023-05-02T20:58:51.253Z,66.69
2023-05-02T21:01:20.808Z,67.14
2023-05-02T21:03:49.951Z,66.85
2023-05-02T21:06:21.709Z,67.27
2023-05-02T21:08:50.736Z,66.78
2023-05-02T21:11:19.456Z,66.52
2023-05-02T21:13:48.255Z,66.71
2023-05-02T21:16:21.384Z,67.44
2023-05-02T21:18:50.347Z,66.88
2023-05-02T21:21:19.243Z,67.22
2023-05-02T21:23:48.140Z,66.93
2023-05-02T21:26:16.920Z,67.36
2023-05-02T21:28:45.812Z,67.39
2023-05-02T21:31:14.741Z,66.88
2023-05-02T21:33:43.704Z,66.98
2023-05-02T21:36:12.713Z,67.17
2023-05-02T21:38:41.569Z,67.01
2023-05-02T21:41:10.648Z,67.58
2023-05-02T21:43:40.986Z,66.96
2023-05-02T21:46:12.016Z,66.78
2023-05-02T21:48:41.198Z,66.93
2023-05-02T21:51:12.120Z,66.76
2023-05-02T21:53:41.934Z,66.67
2023-05-02T21:56:11.323Z,67.14
2023-05-02T21:58:40.197Z,67.21
2023-05-02T22:01:09.996Z,66.72
2023-05-02T22:03:39.625Z,67.26
2023-05-02T22:06:08.543Z,67.01
2023-05-02T22:08:37.582Z,67.26
2023-05-02T22:11:11.022Z,67.47
2023-05-02T22:13:39.937Z,67.41
2023-05-02T22:16:08.973Z,66.94
2023-05-02T22:18:38.832Z,66.90
2023-05-02T22:21:08.675Z,67.27
2023-05-02T22:23:37.457Z,67.14
2023-05-02T22:26:06.466Z,67.51
2023-05-02T22:28:35.318Z,67.13
2023-05-02T22:31:04.160Z,67.29
2023-05-02T22:33:33.236Z,67.11
2023-05-02T22:36:01.970Z,66.98
2023-05-02T22:38:30.889Z,66.70
2023-05-02T22:41:00.820Z,66.40
2023-05-02T22:43:29.796Z,66.72
2023-05-02T22:45:59.792Z,66.45
2023-05-02T22:48:28.925Z,66.77
2023-05-02T22:50:57.787Z,66.35
2023-05-02T22:53:26.702Z,66.76
2023-05-02T22:55:55.617Z,66.25
2023-05-02T22:58:24.549Z,66.06
2023-05-02T23:00:54.091Z,66.37
2023-05-02T23:03:23.362Z,66.62
2023-05-02T23:05:52.441Z,66.28
2023-05-02T23:08:21.651Z,66.10
2023-05-02T23:10:50.660Z,65.63
2023-05-02T23:13:19.898Z,65.61
2023-05-02T23:15:54.971Z,65.98
2023-05-02T23:18:24.142Z,65.69
2023-05-02T23:20:53.065Z,65.30
2023-05-02T23:23:21.980Z,65.86
2023-05-02T23:25:51.028Z,65.69
2023-05-02T23:28:19.864Z,65.78
2023-05-02T23:30:49.478Z,65.31
2023-05-02T23:33:18.528Z,65.66
2023-05-02T23:35:48.117Z,65.14
2023-05-02T23:38:17.068Z,65.20
2023-05-02T23:40:45.912Z,65.05
2023-05-02T23:43:14.925Z,65.50
2023-05-02T23:45:43.745Z,65.24
2023-05-02T23:48:12.593Z,65.28
2023-05-02T23:50:41.621Z,64.63
2023-05-02T23:53:10.581Z,64.65
2023-05-02T23:55:39.472Z,64.36
2023-05-02T23:58:08.309Z,64.32
